Naples, FL (34101)

2:12 PM EDT on August 31, 2015 (GMT -0400)
KFLNAPLE31 | | Change Station
CLOSE
Current Station
Personal Weather Station
Location: Naples, FL
Elevation: 20 ft
Nearby Weather Stations

Elev 20 ft 26.16 °N, 81.78 °W | Updated 3 minutes ago

Partly Cloudy
Partly Cloudy
78.2 °F
Feels Like 81 °F
N
4.0
Wind Variable Wind from SE
Gusts 14.0 mph

Today
High -- | Low -- °F
--% Chance of Precip.
Yesterday
High -- | Low -- °F
Precip. -- in
7:06 AM 7:47 PM
Waning Gibbous, 94% visible
Pressure 30.04 in
Visibility 8.0 miles
Clouds Few 1200 ft
Few 3000 ft
Few 4300 ft
Heat Index 81 °F
Dew Point 76 °F
Humidity 92%
Rainfall 0.21 in
Snow Depth Not available.
UV 14 out of 12
Pollen 3.30 out of 12
Air Quality Not available.
Flu Activity Not available.
METAR KAPF 311753Z 16007KT 8SM FEW012 FEW030 FEW043 27/24 A3004 RMK AO2 LTG DSNT NE AND S RAB40E49 SLP171 P0000 60016 T02670244 10306 20250 50001
Pressure 30.04 in
Visibility 8.0 miles
Clouds Few 1200 ft
Few 3000 ft
Few 4300 ft
Heat Index 81 °F
Dew Point 76 °F
Humidity 92%
Rainfall 0.21 in
Snow Depth Not available.
UV 14 out of 12
Pollen 3.30 out of 12
Air Quality Not available.
Flu Activity Not available.
METAR KAPF 311753Z 16007KT 8SM FEW012 FEW030 FEW043 27/24 A3004 RMK AO2 LTG DSNT NE AND S RAB40E49 SLP171 P0000 60016 T02670244 10306 20250 50001
Nowcast | as of 1:04 PM EDT on August 31, 2015

Scattered showers and thunderstorms will continue onshore into this afternoon, moving north around 15 mph. Wind gusts to 40 mph, along with heavy rainfall and frequent cloud to ground lightning strikes, are all possible with this activity.

×

10-Day Weather Forecast

×

Almanac

Astronomy

Aug. 31, 2015 Rise Set
Actual Time
Civil Twilight
Nautical Twilight
Astronomical Twilight
Moon
Length of Visible Light
Length of Day
Tomorrow will be .
, % of the Moon is Illuminated

Today's Extremes

State Highs State Lows

Community

WunderPhotos

Upload Photos

1,851,327 photos uploaded!

WunderBlogs® & News

Nearby

Air Quality

  Air Quality AQ Index Pollutant
Not available.

Snow Depth

Station Depth Elevation

Earthquake Activity

City Distance Mag. Time & Date
Minimum magnitude displayed is 2.5.

Coastal Water Temperatures

Place Temperature

Stations

Nearby Weather Stations

Station Location Temp. Windchill Dew Point Humidity Wind Precip. Elev Updated Type